Bei Facebook empfehlenBei Twitter postenGoogle plusPinterest

Das Wetter im Erzgebirge am 29.04.2016

Wetter und Klima am 29.04.2016 Holzhau im Erzgebirge (630m ü.NN)
Letzte gemessene Temperatur und Uhrzeit der Messung23:45:00 Uhr-0.70 °C
Temperatur (Maximum / Höchstwert) und Uhrzeit der Messung14:45:00 Uhr12.90 °C
Temperatur (Minimum / Tiefstwert) und Uhrzeit der Messung03:45:00-3.90 °C
Errechneter Absolutwert der Temperaturschwankungen zwischen Tmin und Tmax des Tages16.80 K
Errechnete Tagesmitteltemperatur4.49479 °C
Gesamt - Niederschlag des Tages (in flüssiger Form)0.00 Liter / m²
Luftdruck (Maximum / Höchstwert) und Zeitpunkt der Messung14:00:00 Uhr1015.30 hPa
Luftdruck (Minimum / Tiefstwert) und Zeitpunkt der Messung01:30:00 Uhr1013.20 hPa
Errechneter Absolutwert der Luftdruckschwankungen des Tages2.10 hPa
Höchste gemessene Windgeschwindigkeit und Uhrzeit der Messung23:45:00 Uhr0.00 km/h
Errechnete Windhäufigkeit in Relation zu den Messwerten des Tages0.00000 %
Niedrigste Windkühle (Windchill) und Zeitpunkt der Messung03:45:00 Uhr-3.90 °C
Taupunkt (Maximum / Höchstwert) und Uhrzeit der Messung08:00:00 Uhr3.10 °C
Taupunkt (Minimum / Tiefstwert) und Uhrzeit der Messung03:45:00-6.00 °C
Anzahl der automatisch eingelesenen Messwerte 96

Detaillierte Wetter- und Klima- Messwerte für den 29.04.2016 in Holzhau im Erzgebirge (630m ü.NN)
ZeitTemperaturLuftdruckRel. LuftfeuchteWindWindrichtungWindchillTaupunktNiederschlag l/m²
23:45:00-0.70 °C1014.70 hPa78.00 %-4.40 °C 
23:30:00-0.70 °C1014.70 hPa77.00 %-4.60 °C 
23:15:00-0.40 °C1014.80 hPa77.00 %-4.30 °C 
23:00:00-0.40 °C1014.70 hPa76.00 %-4.50 °C 
22:45:00-0.10 °C1014.80 hPa75.00 %-4.40 °C 
22:30:000.10 °C1014.90 hPa75.00 %-3.80 °C 
22:15:000.30 °C1014.80 hPa74.00 %-3.80 °C 
22:00:000.40 °C1014.70 hPa73.00 %-3.90 °C 
21:45:000.70 °C1014.90 hPa72.00 %-3.80 °C 
21:30:001.20 °C1014.80 hPa71.00 %-3.50 °C 
21:15:001.50 °C1014.90 hPa69.00 %-3.60 °C 
21:00:001.80 °C1014.80 hPa68.00 %-3.50 °C 
20:45:002.30 °C1014.80 hPa67.00 %-3.20 °C 
20:30:002.80 °C1014.90 hPa65.00 %-3.10 °C 
20:15:003.30 °C1014.70 hPa63.00 %-3.10 °C 
20:00:003.90 °C1014.70 hPa60.00 %-3.10 °C 
19:45:004.80 °C1014.50 hPa58.00 %-2.70 °C 
19:30:006.10 °C1014.60 hPa54.00 %-2.50 °C 
19:15:007.60 °C1014.60 hPa52.00 %-1.60 °C 
19:00:009.10 °C1014.70 hPa48.00 %-1.30 °C 
18:45:009.90 °C1014.70 hPa47.00 %-0.90 °C 
18:30:0010.30 °C1014.40 hPa46.00 %-0.80 °C 
18:15:0010.60 °C1014.40 hPa45.00 %-0.80 °C 
18:00:0010.90 °C1014.30 hPa45.00 %-0.50 °C 
17:45:0011.30 °C1014.30 hPa44.00 %-0.50 °C 
17:30:0011.30 °C1014.30 hPa44.00 %-0.50 °C 
17:15:0011.60 °C1014.40 hPa44.00 %-0.20 °C 
17:00:0011.80 °C1014.50 hPa43.00 %-0.40 °C 
16:45:0011.90 °C1014.80 hPa43.00 %-0.30 °C 
16:30:0011.80 °C1014.50 hPa43.00 %-0.40 °C 
16:15:0012.30 °C1014.60 hPa43.00 %0.10 °C 
16:00:0012.80 °C1014.50 hPa44.00 %0.90 °C 
15:45:0012.80 °C1014.70 hPa43.00 %0.50 °C 
15:30:0012.30 °C1014.80 hPa44.00 %0.40 °C 
15:15:0012.10 °C1015.10 hPa44.00 %0.20 °C 
15:00:0012.70 °C1014.80 hPa45.00 %1.10 °C 
14:45:0012.90 °C1015.00 hPa45.00 %1.30 °C 
14:30:0012.60 °C1015.00 hPa48.00 %1.90 °C 
14:15:0011.50 °C1015.20 hPa48.00 %0.90 °C 
14:00:0012.10 °C1015.30 hPa47.00 %1.10 °C 
13:45:0011.90 °C1015.10 hPa50.00 %1.80 °C 
13:30:0010.90 °C1015.00 hPa50.00 %0.90 °C 
13:15:0010.90 °C1015.10 hPa50.00 %0.90 °C 
13:00:0011.00 °C1015.10 hPa51.00 %1.30 °C 
12:45:0011.20 °C1015.20 hPa52.00 %1.70 °C 
12:30:0010.60 °C1015.10 hPa52.00 %1.20 °C 
12:15:0010.30 °C1014.90 hPa52.00 %0.90 °C 
12:00:0010.30 °C1015.10 hPa54.00 %1.40 °C 
11:45:009.80 °C1015.20 hPa56.00 %1.50 °C 
11:30:009.30 °C1015.20 hPa56.00 %1.00 °C 
11:15:009.50 °C1015.20 hPa57.00 %1.40 °C 
11:00:009.40 °C1015.30 hPa57.00 %1.30 °C 
10:45:008.90 °C1015.20 hPa58.00 %1.10 °C 
10:30:008.80 °C1015.20 hPa59.00 %1.20 °C 
10:15:008.50 °C1015.30 hPa59.00 %1.00 °C 
10:00:008.50 °C1015.20 hPa61.00 %1.40 °C 
09:45:008.30 °C1015.20 hPa62.00 %1.50 °C 
09:30:007.90 °C1015.10 hPa65.00 %1.70 °C 
09:15:007.40 °C1015.20 hPa66.00 %1.50 °C 
09:00:007.50 °C1015.20 hPa68.00 %2.00 °C 
08:45:007.10 °C1015.00 hPa71.00 %2.20 °C 
08:30:006.80 °C1015.10 hPa74.00 %2.50 °C 
08:15:006.60 °C1015.10 hPa77.00 %2.90 °C 
08:00:006.30 °C1014.90 hPa80.00 %3.10 °C 
07:45:005.60 °C1014.80 hPa84.00 %3.10 °C 
07:30:004.00 °C1014.70 hPa85.00 %1.70 °C 
07:15:002.90 °C1014.50 hPa86.00 %0.80 °C 
07:00:002.10 °C1014.60 hPa86.00 %0.00 °C 
06:45:001.40 °C1014.50 hPa87.00 %-0.50 °C 
06:30:000.70 °C1014.40 hPa89.00 %-0.90 °C 
06:15:00-0.90 °C1014.40 hPa90.00 %-2.50 °C 
06:00:00-2.30 °C1014.50 hPa89.00 %-4.00 °C 
05:45:00-2.60 °C1014.20 hPa88.00 %-4.50 °C 
05:30:00-3.10 °C1014.20 hPa88.00 %-5.00 °C 
05:15:00-3.30 °C1014.00 hPa88.00 %-5.20 °C 
05:00:00-3.40 °C1014.00 hPa88.00 %-5.30 °C 
04:45:00-3.40 °C1013.90 hPa88.00 %-5.30 °C 
04:30:00-3.50 °C1013.90 hPa88.00 %-5.40 °C 
04:15:00-3.60 °C1013.70 hPa87.00 %-5.70 °C 
04:00:00-3.70 °C1013.60 hPa87.00 %-5.80 °C 
03:45:00-3.90 °C1013.50 hPa87.00 %-6.00 °C 
03:30:00-3.70 °C1013.40 hPa87.00 %-5.80 °C 
03:15:00-3.40 °C1013.50 hPa86.00 %-5.60 °C 
03:00:00-3.10 °C1013.50 hPa86.00 %-5.30 °C 
02:45:00-3.10 °C1013.50 hPa86.00 %-5.30 °C 
02:30:00-3.20 °C1013.50 hPa86.00 %-5.40 °C 
02:15:00-3.40 °C1013.40 hPa86.00 %-5.60 °C 
02:00:00-3.50 °C1013.40 hPa86.00 %-5.70 °C 
01:45:00-3.60 °C1013.30 hPa85.00 %-6.00 °C 
01:30:00-3.40 °C1013.20 hPa85.00 %-5.80 °C 
01:15:00-3.10 °C1013.30 hPa85.00 %-5.50 °C 
01:00:00-2.90 °C1013.40 hPa84.00 %-5.50 °C 
00:45:00-2.70 °C1013.40 hPa84.00 %-5.30 °C 
00:30:00-3.10 °C1013.40 hPa84.00 %-5.70 °C 
00:15:00-3.10 °C1013.30 hPa83.00 %-5.90 °C 
00:00:00-3.00 °C1013.30 hPa83.00 %-5.80 °C 

Permanenter Link zu dieser Seite: Wetter im Erzgebirge am 29.04.2016
Performance-Info: Die Erstellung der Seite / Statistik(en) / Tabelle(n) erforderte 5 Datenbankserver-Abfrage(n) und dauerte 102 Millisekunden. (Dieser Messwert ist von der Gesamt-Auslastung des Servers abhängig.)
Erzgebirge - Wetter | Erzgebirge - Wetter (Mobilgeräte) | Komplette Klimadatenbank